PWSweather.com
Personal Weather Stations
Station Observations
CARNOUSTIE
Pambride, CarnoustieGB DD7 6DY

PambrideCarnoustieGB DD7 6DY

Lat: 56.50889, Lon: -2.7051

Elevation: 105

Station Type: Oregon Scientific WMR200

Latest ConditionsUpdated 1:00:00 PM GMT Sunday, Nov 18, 2018
Currently Today's Max Today's Min Today's Average
Temperature 51.3°F10.7°C 51.6°F10.9°C 44.4°F6.9°C 48.0°F8.9°C
Dew Point 39.5°F4.2°C 42.2°F5.7°C 35.6°F2.0°C 38.6°F3.7°C
Winds 4.6 mph SE7.4 kmh SE 8.1 mph -13.0 kmh - - 5.4 mph 8.7 kmh
Wind Gusts 6.9 mph11.1 kmh 12.7 mph20.4 kmh - -
Humidity 64% 75% 64% 70%
Pressure 30.50 in1032.8 mb 30.53 in1033.9 mb 30.45 in1031.2 mb -
Hour Temp Dew Point Humidity Winds Wind Gusts Pressure Precip Precip Rate Daily Precip Total
01:00 PM 51.3°F10.7°C 39.5°F4.2°C 64% 4.6 mph SE7.4 kmh SE 6.9 mph11.1 kmh 30.50 in1032.8 mb - 0.00 in0.0 mm 0.00 in0.0 mm
12:55 PM 51.3°F10.7°C 39.9°F4.4°C 65% 5.8 mph E9.3 kmh E 6.9 mph11.1 kmh 30.50 in1032.8 mb - 0.00 in0.0 mm 0.00 in0.0 mm
12:50 PM 51.1°F10.6°C 39.7°F4.3°C 65% 3.5 mph ESE5.6 kmh ESE 8.1 mph13.0 kmh 30.50 in1032.8 mb - 0.00 in0.0 mm 0.00 in0.0 mm
12:45 PM 51.3°F10.7°C 39.9°F4.4°C 65% 4.6 mph E7.4 kmh E 6.9 mph11.1 kmh 30.50 in1032.8 mb - 0.00 in0.0 mm 0.00 in0.0 mm
12:40 PM 51.1°F10.6°C 39.7°F4.3°C 65% 5.8 mph E9.3 kmh E 6.9 mph11.1 kmh 30.50 in1032.8 mb - 0.00 in0.0 mm 0.00 in0.0 mm
12:35 PM 51.1°F10.6°C 39.7°F4.3°C 65% 4.6 mph ESE7.4 kmh ESE 5.8 mph9.3 kmh 30.50 in1032.8 mb - 0.00 in0.0 mm 0.00 in0.0 mm
12:30 PM 51.3°F10.7°C 39.9°F4.4°C 65% 5.8 mph ESE9.3 kmh ESE 6.9 mph11.1 kmh 30.50 in1032.8 mb - 0.00 in0.0 mm 0.00 in0.0 mm
12:25 PM 51.6°F10.9°C 40.6°F4.8°C 66% 6.9 mph SE11.1 kmh SE 9.2 mph14.8 kmh 30.50 in1032.8 mb - 0.00 in0.0 mm 0.00 in0.0 mm
12:20 PM 51.4°F10.8°C 40.5°F4.7°C 66% 5.8 mph E9.3 kmh E 6.9 mph11.1 kmh 30.52 in1033.5 mb - 0.00 in0.0 mm 0.00 in0.0 mm
12:15 PM 51.3°F10.7°C 40.3°F4.6°C 66% 5.8 mph ESE9.3 kmh ESE 6.9 mph11.1 kmh 30.53 in1033.9 mb - 0.00 in0.0 mm 0.00 in0.0 mm
12:10 PM 50.9°F10.5°C 39.9°F4.4°C 66% 5.8 mph ESE9.3 kmh ESE 6.9 mph11.1 kmh 30.53 in1033.9 mb - 0.00 in0.0 mm 0.00 in0.0 mm
12:00 PM 50.4°F10.2°C 39.4°F4.1°C 66% 6.9 mph ESE11.1 kmh ESE 8.1 mph13.0 kmh 30.53 in1033.9 mb - 0.00 in0.0 mm 0.00 in0.0 mm
11:55 AM 50.6°F10.3°C 39.7°F4.3°C 66% 6.9 mph ESE11.1 kmh ESE 9.2 mph14.8 kmh 30.53 in1033.9 mb - 0.00 in0.0 mm 0.00 in0.0 mm
11:50 AM 50.9°F10.5°C 40.3°F4.6°C 67% 6.9 mph ESE11.1 kmh ESE 11.5 mph18.5 kmh 30.53 in1033.9 mb - 0.00 in0.0 mm 0.00 in0.0 mm
11:45 AM 51.1°F10.6°C 40.9°F4.9°C 68% 6.9 mph SE11.1 kmh SE 8.1 mph13.0 kmh 30.53 in1033.9 mb - 0.00 in0.0 mm 0.00 in0.0 mm
11:40 AM 51.6°F10.9°C 41.8°F5.4°C 69% 6.9 mph ESE11.1 kmh ESE 10.4 mph16.7 kmh 30.53 in1033.9 mb - 0.00 in0.0 mm 0.00 in0.0 mm
11:35 AM 51.2°F10.7°C 41.4°F5.2°C 69% 5.8 mph SE9.3 kmh SE 8.1 mph13.0 kmh 30.53 in1033.9 mb - 0.00 in0.0 mm 0.00 in0.0 mm
11:30 AM 50.7°F10.4°C 40.9°F4.9°C 69% 8.1 mph E13.0 kmh E 10.4 mph16.7 kmh 30.53 in1033.9 mb - 0.00 in0.0 mm 0.00 in0.0 mm
11:25 AM 50.7°F10.4°C 40.9°F4.9°C 69% 6.9 mph ESE11.1 kmh ESE 8.1 mph13.0 kmh 30.53 in1033.9 mb - 0.00 in0.0 mm 0.00 in0.0 mm
11:20 AM 50.7°F10.4°C 41.3°F5.2°C 70% 6.9 mph SE11.1 kmh SE 6.9 mph11.1 kmh 30.53 in1033.9 mb - 0.00 in0.0 mm 0.00 in0.0 mm
11:15 AM 50.7°F10.4°C 41.3°F5.2°C 70% 6.9 mph ESE11.1 kmh ESE 8.1 mph13.0 kmh 30.53 in1033.9 mb - 0.00 in0.0 mm 0.00 in0.0 mm
11:10 AM 50.7°F10.4°C 41.7°F5.4°C 71% 6.9 mph E11.1 kmh E 10.4 mph16.7 kmh 30.53 in1033.9 mb - 0.00 in0.0 mm 0.00 in0.0 mm
11:00 AM 50.4°F10.2°C 41.3°F5.2°C 71% 5.8 mph SE9.3 kmh SE 6.9 mph11.1 kmh 30.53 in1033.9 mb - 0.00 in0.0 mm 0.00 in0.0 mm
10:55 AM 50.2°F10.1°C 41.1°F5.1°C 71% 4.6 mph ESE7.4 kmh ESE 5.8 mph9.3 kmh 30.53 in1033.9 mb - 0.00 in0.0 mm 0.00 in0.0 mm
10:50 AM 50.0°F10.0°C 41.0°F5.0°C 71% 5.8 mph E9.3 kmh E 6.9 mph11.1 kmh 30.52 in1033.5 mb - 0.00 in0.0 mm 0.00 in0.0 mm
10:45 AM 50.0°F10.0°C 41.3°F5.2°C 72% 6.9 mph SE11.1 kmh SE 10.4 mph16.7 kmh 30.50 in1032.8 mb - 0.00 in0.0 mm 0.00 in0.0 mm
10:40 AM 50.0°F10.0°C 41.3°F5.2°C 72% 6.9 mph SE11.1 kmh SE 9.2 mph14.8 kmh 30.50 in1032.8 mb - 0.00 in0.0 mm 0.00 in0.0 mm
10:35 AM 49.8°F9.9°C 41.2°F5.1°C 72% 5.8 mph ESE9.3 kmh ESE 9.2 mph14.8 kmh 30.50 in1032.8 mb - 0.00 in0.0 mm 0.00 in0.0 mm
10:30 AM 50.0°F10.0°C 41.3°F5.2°C 72% 6.9 mph ESE11.1 kmh ESE 10.4 mph16.7 kmh 30.50 in1032.8 mb - 0.00 in0.0 mm 0.00 in0.0 mm
10:25 AM 50.0°F10.0°C 41.7°F5.4°C 73% 8.1 mph E13.0 kmh E 10.4 mph16.7 kmh 30.50 in1032.8 mb - 0.00 in0.0 mm 0.00 in0.0 mm
10:20 AM 50.2°F10.1°C 42.2°F5.7°C 74% 6.9 mph E11.1 kmh E 8.1 mph13.0 kmh 30.50 in1032.8 mb - 0.00 in0.0 mm 0.00 in0.0 mm
10:15 AM 50.0°F10.0°C 42.0°F5.6°C 74% 6.9 mph E11.1 kmh E 6.9 mph11.1 kmh 30.50 in1032.8 mb - 0.00 in0.0 mm 0.00 in0.0 mm
10:10 AM 49.6°F9.8°C 42.0°F5.6°C 75% 5.8 mph E9.3 kmh E 8.1 mph13.0 kmh 30.50 in1032.8 mb - 0.00 in0.0 mm 0.00 in0.0 mm
10:00 AM 48.9°F9.4°C 41.0°F5.0°C 74% 5.8 mph E9.3 kmh E 6.9 mph11.1 kmh 30.48 in1032.2 mb - 0.00 in0.0 mm 0.00 in0.0 mm
09:55 AM 48.7°F9.3°C 40.8°F4.9°C 74% 5.8 mph E9.3 kmh E 6.9 mph11.1 kmh 30.48 in1032.2 mb - 0.00 in0.0 mm 0.00 in0.0 mm
09:50 AM 48.6°F9.2°C 40.6°F4.8°C 74% 5.8 mph E9.3 kmh E 6.9 mph11.1 kmh 30.50 in1032.8 mb - 0.00 in0.0 mm 0.00 in0.0 mm
09:45 AM 48.4°F9.1°C 40.5°F4.7°C 74% 5.8 mph SE9.3 kmh SE 6.9 mph11.1 kmh 30.50 in1032.8 mb - 0.00 in0.0 mm 0.00 in0.0 mm
09:40 AM 48.4°F9.1°C 40.8°F4.9°C 75% 4.6 mph SE7.4 kmh SE 5.8 mph9.3 kmh 30.50 in1032.8 mb - 0.00 in0.0 mm 0.00 in0.0 mm
09:35 AM 48.4°F9.1°C 40.8°F4.9°C 75% 6.9 mph SE11.1 kmh SE 8.1 mph13.0 kmh 30.50 in1032.8 mb - 0.00 in0.0 mm 0.00 in0.0 mm
09:30 AM 48.2°F9.0°C 40.6°F4.8°C 75% 5.8 mph SE9.3 kmh SE 5.8 mph9.3 kmh 30.50 in1032.8 mb - 0.00 in0.0 mm 0.00 in0.0 mm
09:25 AM 48.0°F8.9°C 40.5°F4.7°C 75% 5.8 mph E9.3 kmh E 6.9 mph11.1 kmh 30.50 in1032.8 mb - 0.00 in0.0 mm 0.00 in0.0 mm
09:20 AM 48.0°F8.9°C 40.5°F4.7°C 75% 4.6 mph ESE7.4 kmh ESE 5.8 mph9.3 kmh 30.50 in1032.8 mb - 0.00 in0.0 mm 0.00 in0.0 mm
09:15 AM 47.8°F8.8°C 40.3°F4.6°C 75% 4.6 mph SE7.4 kmh SE 5.8 mph9.3 kmh 30.50 in1032.8 mb - 0.00 in0.0 mm 0.00 in0.0 mm
09:10 AM 47.7°F8.7°C 40.1°F4.5°C 75% 5.8 mph ESE9.3 kmh ESE 8.1 mph13.0 kmh 30.50 in1032.8 mb - 0.00 in0.0 mm 0.00 in0.0 mm
09:00 AM 47.0°F8.3°C 39.4°F4.1°C 75% 5.8 mph E9.3 kmh E 8.1 mph13.0 kmh 30.50 in1032.8 mb - 0.00 in0.0 mm 0.00 in0.0 mm
08:55 AM 46.7°F8.2°C 39.2°F4.0°C 75% 4.6 mph E7.4 kmh E 6.9 mph11.1 kmh 30.50 in1032.8 mb - 0.00 in0.0 mm 0.00 in0.0 mm
08:50 AM 46.4°F8.0°C 38.6°F3.7°C 74% 5.8 mph SE9.3 kmh SE 8.1 mph13.0 kmh 30.50 in1032.8 mb - 0.00 in0.0 mm 0.00 in0.0 mm
08:45 AM 46.2°F7.9°C 38.4°F3.6°C 74% 4.6 mph E7.4 kmh E 8.1 mph13.0 kmh 30.50 in1032.8 mb - 0.00 in0.0 mm 0.00 in0.0 mm
08:40 AM 46.0°F7.8°C 38.2°F3.4°C 74% 4.6 mph E7.4 kmh E 6.9 mph11.1 kmh 30.50 in1032.8 mb - 0.00 in0.0 mm 0.00 in0.0 mm
08:35 AM 45.9°F7.7°C 38.0°F3.3°C 74% 4.6 mph E7.4 kmh E 4.6 mph7.4 kmh 30.50 in1032.8 mb - 0.00 in0.0 mm 0.00 in0.0 mm
08:30 AM 45.9°F7.7°C 38.0°F3.3°C 74% 4.6 mph E7.4 kmh E 5.8 mph9.3 kmh 30.50 in1032.8 mb - 0.00 in0.0 mm 0.00 in0.0 mm
08:25 AM 45.7°F7.6°C 37.9°F3.3°C 74% 5.8 mph ESE9.3 kmh ESE 8.1 mph13.0 kmh 30.50 in1032.8 mb - 0.00 in0.0 mm 0.00 in0.0 mm
08:20 AM 45.9°F7.7°C 38.0°F3.3°C 74% 4.6 mph ESE7.4 kmh ESE 8.1 mph13.0 kmh 30.50 in1032.8 mb - 0.00 in0.0 mm 0.00 in0.0 mm
08:15 AM 45.7°F7.6°C 37.9°F3.3°C 74% 4.6 mph E7.4 kmh E 5.8 mph9.3 kmh 30.50 in1032.8 mb - 0.00 in0.0 mm 0.00 in0.0 mm
08:10 AM 45.7°F7.6°C 37.9°F3.3°C 74% 4.6 mph E7.4 kmh E 5.8 mph9.3 kmh 30.50 in1032.8 mb - 0.00 in0.0 mm 0.00 in0.0 mm
08:00 AM 45.5°F7.5°C 37.7°F3.2°C 74% 4.6 mph E7.4 kmh E 5.8 mph9.3 kmh 30.50 in1032.8 mb - 0.00 in0.0 mm 0.00 in0.0 mm
07:55 AM 45.3°F7.4°C 37.2°F2.9°C 73% 4.6 mph ESE7.4 kmh ESE 8.1 mph13.0 kmh 30.50 in1032.8 mb - 0.00 in0.0 mm 0.00 in0.0 mm
07:50 AM 45.3°F7.4°C 37.2°F2.9°C 73% 4.6 mph E7.4 kmh E 5.8 mph9.3 kmh 30.50 in1032.8 mb - 0.00 in0.0 mm 0.00 in0.0 mm
07:45 AM 45.1°F7.3°C 37.0°F2.8°C 73% 5.8 mph SE9.3 kmh SE 8.1 mph13.0 kmh 30.50 in1032.8 mb - 0.00 in0.0 mm 0.00 in0.0 mm
07:40 AM 45.1°F7.3°C 37.0°F2.8°C 73% 3.5 mph E5.6 kmh E 4.6 mph7.4 kmh 30.50 in1032.8 mb - 0.00 in0.0 mm 0.00 in0.0 mm
07:35 AM 45.0°F7.2°C 36.5°F2.5°C 72% 3.5 mph E5.6 kmh E 4.6 mph7.4 kmh 30.50 in1032.8 mb - 0.00 in0.0 mm 0.00 in0.0 mm
07:30 AM 45.0°F7.2°C 36.5°F2.5°C 72% 3.5 mph E5.6 kmh E 3.5 mph5.6 kmh 30.50 in1032.8 mb - 0.00 in0.0 mm 0.00 in0.0 mm
07:25 AM 45.0°F7.2°C 36.5°F2.5°C 72% 4.6 mph E7.4 kmh E 5.8 mph9.3 kmh 30.50 in1032.8 mb - 0.00 in0.0 mm 0.00 in0.0 mm
07:20 AM 45.0°F7.2°C 36.5°F2.5°C 72% 4.6 mph E7.4 kmh E 5.8 mph9.3 kmh 30.50 in1032.8 mb - 0.00 in0.0 mm 0.00 in0.0 mm
07:15 AM 44.8°F7.1°C 36.3°F2.4°C 72% 4.6 mph E7.4 kmh E 5.8 mph9.3 kmh 30.50 in1032.8 mb - 0.00 in0.0 mm 0.00 in0.0 mm
07:10 AM 44.8°F7.1°C 36.3°F2.4°C 72% 4.6 mph E7.4 kmh E 5.8 mph9.3 kmh 30.50 in1032.8 mb - 0.00 in0.0 mm 0.00 in0.0 mm
07:00 AM 44.4°F6.9°C 35.6°F2.0°C 71% 3.5 mph E5.6 kmh E 5.8 mph9.3 kmh 30.50 in1032.8 mb - 0.00 in0.0 mm 0.00 in0.0 mm
06:55 AM 44.6°F7.0°C 35.8°F2.1°C 71% 3.5 mph E5.6 kmh E 3.5 mph5.6 kmh 30.50 in1032.8 mb - 0.00 in0.0 mm 0.00 in0.0 mm
06:50 AM 44.8°F7.1°C 35.9°F2.2°C 71% 3.5 mph ENE5.6 kmh ENE 4.6 mph7.4 kmh 30.50 in1032.8 mb - 0.00 in0.0 mm 0.00 in0.0 mm
06:45 AM 45.1°F7.3°C 36.2°F2.3°C 71% 2.3 mph E3.7 kmh E 4.6 mph7.4 kmh 30.50 in1032.8 mb - 0.00 in0.0 mm 0.00 in0.0 mm
06:40 AM 45.1°F7.3°C 36.3°F2.4°C 71% 4.6 mph E7.4 kmh E 5.8 mph9.3 kmh 30.50 in1032.8 mb - 0.00 in0.0 mm 0.00 in0.0 mm
06:35 AM 45.1°F7.3°C 35.9°F2.2°C 70% 4.6 mph E7.4 kmh E 6.9 mph11.1 kmh 30.50 in1032.8 mb - 0.00 in0.0 mm 0.00 in0.0 mm
06:30 AM 45.1°F7.3°C 35.9°F2.2°C 70% 4.6 mph E7.4 kmh E 5.8 mph9.3 kmh 30.50 in1032.8 mb - 0.00 in0.0 mm 0.00 in0.0 mm
06:25 AM 45.5°F7.5°C 36.3°F2.4°C 70% 4.6 mph E7.4 kmh E 5.8 mph9.3 kmh 30.50 in1032.8 mb - 0.00 in0.0 mm 0.00 in0.0 mm
06:20 AM 45.5°F7.5°C 36.3°F2.4°C 70% 4.6 mph E7.4 kmh E 5.8 mph9.3 kmh 30.50 in1032.8 mb - 0.00 in0.0 mm 0.00 in0.0 mm
06:15 AM 45.7°F7.6°C 36.5°F2.5°C 70% 3.5 mph ENE5.6 kmh ENE 4.6 mph7.4 kmh 30.50 in1032.8 mb - 0.00 in0.0 mm 0.00 in0.0 mm
06:10 AM 46.0°F7.8°C 36.8°F2.7°C 70% 3.5 mph E5.6 kmh E 5.8 mph9.3 kmh 30.50 in1032.8 mb - 0.00 in0.0 mm 0.00 in0.0 mm
06:00 AM 46.4°F8.0°C 37.1°F2.8°C 70% 4.6 mph E7.4 kmh E 4.6 mph7.4 kmh 30.50 in1032.8 mb - 0.00 in0.0 mm 0.00 in0.0 mm
05:55 AM 46.6°F8.1°C 37.3°F2.9°C 70% 3.5 mph E5.6 kmh E 4.6 mph7.4 kmh 30.50 in1032.8 mb - 0.00 in0.0 mm 0.00 in0.0 mm
05:50 AM 46.8°F8.2°C 37.5°F3.1°C 70% 3.5 mph E5.6 kmh E 4.6 mph7.4 kmh 30.50 in1032.8 mb - 0.00 in0.0 mm 0.00 in0.0 mm
05:45 AM 46.9°F8.3°C 37.7°F3.2°C 70% 3.5 mph E5.6 kmh E 5.8 mph9.3 kmh 30.50 in1032.8 mb - 0.00 in0.0 mm 0.00 in0.0 mm
05:40 AM 46.9°F8.3°C 37.7°F3.2°C 70% 3.5 mph E5.6 kmh E 4.6 mph7.4 kmh 30.50 in1032.8 mb - 0.00 in0.0 mm 0.00 in0.0 mm
05:35 AM 47.1°F8.4°C 37.8°F3.2°C 70% 2.3 mph ESE3.7 kmh ESE 2.3 mph3.7 kmh 30.50 in1032.8 mb - 0.00 in0.0 mm 0.00 in0.0 mm
05:30 AM 47.3°F8.5°C 38.0°F3.3°C 70% 3.5 mph E5.6 kmh E 4.6 mph7.4 kmh 30.50 in1032.8 mb - 0.00 in0.0 mm 0.00 in0.0 mm
05:25 AM 47.3°F8.5°C 37.6°F3.1°C 69% 3.5 mph E5.6 kmh E 5.8 mph9.3 kmh 30.50 in1032.8 mb - 0.00 in0.0 mm 0.00 in0.0 mm
05:20 AM 47.3°F8.5°C 37.6°F3.1°C 69% 5.8 mph E9.3 kmh E 8.1 mph13.0 kmh 30.50 in1032.8 mb - 0.00 in0.0 mm 0.00 in0.0 mm
05:15 AM 47.3°F8.5°C 37.6°F3.1°C 69% 5.8 mph ESE9.3 kmh ESE 8.1 mph13.0 kmh 30.50 in1032.8 mb - 0.00 in0.0 mm 0.00 in0.0 mm
05:10 AM 47.5°F8.6°C 37.8°F3.2°C 69% 4.6 mph ESE7.4 kmh ESE 5.8 mph9.3 kmh 30.50 in1032.8 mb - 0.00 in0.0 mm 0.00 in0.0 mm
05:00 AM 47.6°F8.7°C 37.9°F3.3°C 69% 5.8 mph SE9.3 kmh SE 6.9 mph11.1 kmh 30.50 in1032.8 mb - 0.00 in0.0 mm 0.00 in0.0 mm
04:55 AM 47.7°F8.7°C 38.0°F3.3°C 69% 5.8 mph ESE9.3 kmh ESE 4.6 mph7.4 kmh 30.50 in1032.8 mb - 0.00 in0.0 mm 0.00 in0.0 mm
04:50 AM 47.8°F8.8°C 38.2°F3.4°C 69% 5.8 mph SE9.3 kmh SE 8.1 mph13.0 kmh 30.50 in1032.8 mb - 0.00 in0.0 mm 0.00 in0.0 mm
04:45 AM 47.8°F8.8°C 38.2°F3.4°C 69% 4.6 mph SE7.4 kmh SE 4.6 mph7.4 kmh 30.50 in1032.8 mb - 0.00 in0.0 mm 0.00 in0.0 mm
04:40 AM 47.8°F8.8°C 38.2°F3.4°C 69% 5.8 mph SE9.3 kmh SE 9.2 mph14.8 kmh 30.50 in1032.8 mb - 0.00 in0.0 mm 0.00 in0.0 mm
04:35 AM 47.7°F8.7°C 38.0°F3.3°C 69% 4.6 mph SE7.4 kmh SE 6.9 mph11.1 kmh 30.49 in1032.5 mb - 0.00 in0.0 mm 0.00 in0.0 mm
04:30 AM 47.7°F8.7°C 38.0°F3.3°C 69% 4.6 mph SE7.4 kmh SE 8.1 mph13.0 kmh 30.48 in1032.2 mb - 0.00 in0.0 mm 0.00 in0.0 mm
04:25 AM 47.7°F8.7°C 38.0°F3.3°C 69% 4.6 mph SSE7.4 kmh SSE 6.9 mph11.1 kmh 30.48 in1032.2 mb - 0.00 in0.0 mm 0.00 in0.0 mm
04:20 AM 47.7°F8.7°C 38.0°F3.3°C 69% 4.6 mph SE7.4 kmh SE 5.8 mph9.3 kmh 30.48 in1032.2 mb - 0.00 in0.0 mm 0.00 in0.0 mm
04:15 AM 47.7°F8.7°C 38.0°F3.3°C 69% 5.8 mph SE9.3 kmh SE 6.9 mph11.1 kmh 30.48 in1032.2 mb - 0.00 in0.0 mm 0.00 in0.0 mm
04:10 AM 47.7°F8.7°C 37.6°F3.1°C 68% 4.6 mph ESE7.4 kmh ESE 6.9 mph11.1 kmh 30.48 in1032.2 mb - 0.00 in0.0 mm 0.00 in0.0 mm
04:00 AM 47.8°F8.8°C 37.8°F3.2°C 68% 5.8 mph SE9.3 kmh SE 6.9 mph11.1 kmh 30.48 in1032.2 mb - 0.00 in0.0 mm 0.00 in0.0 mm
03:55 AM 47.8°F8.8°C 37.8°F3.2°C 68% 5.8 mph ESE9.3 kmh ESE 9.2 mph14.8 kmh 30.48 in1032.2 mb - 0.00 in0.0 mm 0.00 in0.0 mm
03:50 AM 48.0°F8.9°C 37.9°F3.3°C 68% 4.6 mph E7.4 kmh E 6.9 mph11.1 kmh 30.48 in1032.2 mb - 0.00 in0.0 mm 0.00 in0.0 mm
03:45 AM 48.0°F8.9°C 38.0°F3.3°C 68% 4.6 mph E7.4 kmh E 5.8 mph9.3 kmh 30.48 in1032.2 mb - 0.00 in0.0 mm 0.00 in0.0 mm
03:40 AM 48.0°F8.9°C 38.0°F3.3°C 68% 5.8 mph ESE9.3 kmh ESE 6.9 mph11.1 kmh 30.48 in1032.2 mb - 0.00 in0.0 mm 0.00 in0.0 mm
03:35 AM 48.0°F8.9°C 38.0°F3.3°C 68% 4.6 mph SE7.4 kmh SE 5.8 mph9.3 kmh 30.48 in1032.2 mb - 0.00 in0.0 mm 0.00 in0.0 mm
03:30 AM 48.0°F8.9°C 38.0°F3.3°C 68% 5.8 mph SE9.3 kmh SE 5.8 mph9.3 kmh 30.48 in1032.2 mb - 0.00 in0.0 mm 0.00 in0.0 mm
03:25 AM 48.0°F8.9°C 38.0°F3.3°C 68% 5.8 mph SE9.3 kmh SE 6.9 mph11.1 kmh 30.48 in1032.2 mb - 0.00 in0.0 mm 0.00 in0.0 mm
03:20 AM 48.0°F8.9°C 38.0°F3.3°C 68% 6.9 mph SE11.1 kmh SE 9.2 mph14.8 kmh 30.45 in1031.2 mb - 0.00 in0.0 mm 0.00 in0.0 mm
03:15 AM 47.8°F8.8°C 37.8°F3.2°C 68% 4.6 mph SE7.4 kmh SE 5.8 mph9.3 kmh 30.45 in1031.2 mb - 0.00 in0.0 mm 0.00 in0.0 mm
03:10 AM 47.8°F8.8°C 37.8°F3.2°C 68% 3.5 mph SE5.6 kmh SE 4.6 mph7.4 kmh 30.45 in1031.2 mb - 0.00 in0.0 mm 0.00 in0.0 mm
03:00 AM 48.0°F8.9°C 38.0°F3.3°C 68% 5.8 mph SSE9.3 kmh SSE 9.2 mph14.8 kmh 30.45 in1031.2 mb - 0.00 in0.0 mm 0.00 in0.0 mm
02:55 AM 48.0°F8.9°C 38.0°F3.3°C 68% 6.9 mph SE11.1 kmh SE 8.1 mph13.0 kmh 30.45 in1031.2 mb - 0.00 in0.0 mm 0.00 in0.0 mm
02:50 AM 48.0°F8.9°C 38.0°F3.3°C 68% 4.6 mph SE7.4 kmh SE 6.9 mph11.1 kmh 30.45 in1031.2 mb - 0.00 in0.0 mm 0.00 in0.0 mm
02:45 AM 48.0°F8.9°C 38.0°F3.3°C 68% 4.6 mph SSE7.4 kmh SSE 5.8 mph9.3 kmh 30.45 in1031.2 mb - 0.00 in0.0 mm 0.00 in0.0 mm
02:40 AM 48.0°F8.9°C 38.0°F3.3°C 68% 5.8 mph SSE9.3 kmh SSE 8.1 mph13.0 kmh 30.45 in1031.2 mb - 0.00 in0.0 mm 0.00 in0.0 mm
02:35 AM 48.0°F8.9°C 38.0°F3.3°C 68% 5.8 mph SE9.3 kmh SE 6.9 mph11.1 kmh 30.47 in1031.8 mb - 0.00 in0.0 mm 0.00 in0.0 mm
02:30 AM 48.0°F8.9°C 38.0°F3.3°C 68% 5.8 mph SE9.3 kmh SE 8.1 mph13.0 kmh 30.48 in1032.2 mb - 0.00 in0.0 mm 0.00 in0.0 mm
02:25 AM 48.0°F8.9°C 38.0°F3.3°C 68% 6.9 mph SE11.1 kmh SE 8.1 mph13.0 kmh 30.48 in1032.2 mb - 0.00 in0.0 mm 0.00 in0.0 mm
02:20 AM 48.0°F8.9°C 38.0°F3.3°C 68% 5.8 mph SE9.3 kmh SE 6.9 mph11.1 kmh 30.48 in1032.2 mb - 0.00 in0.0 mm 0.00 in0.0 mm
02:15 AM 48.0°F8.9°C 38.0°F3.3°C 68% 3.5 mph SE5.6 kmh SE 5.8 mph9.3 kmh 30.48 in1032.2 mb - 0.00 in0.0 mm 0.00 in0.0 mm
02:10 AM 48.0°F8.9°C 38.0°F3.3°C 68% 5.8 mph SSE9.3 kmh SSE 6.9 mph11.1 kmh 30.48 in1032.2 mb - 0.00 in0.0 mm 0.00 in0.0 mm
02:00 AM 48.0°F8.9°C 38.0°F3.3°C 68% 4.6 mph SSE7.4 kmh SSE 6.9 mph11.1 kmh 30.45 in1031.2 mb - 0.00 in0.0 mm 0.00 in0.0 mm
01:55 AM 47.8°F8.8°C 37.8°F3.2°C 68% 4.6 mph SSE7.4 kmh SSE 5.8 mph9.3 kmh 30.45 in1031.2 mb - 0.00 in0.0 mm 0.00 in0.0 mm
01:50 AM 48.0°F8.9°C 38.0°F3.3°C 68% 5.8 mph SSE9.3 kmh SSE 6.9 mph11.1 kmh 30.45 in1031.2 mb - 0.00 in0.0 mm 0.00 in0.0 mm
01:45 AM 48.2°F9.0°C 38.1°F3.4°C 68% 6.9 mph SE11.1 kmh SE 9.2 mph14.8 kmh 30.45 in1031.2 mb - 0.00 in0.0 mm 0.00 in0.0 mm
01:40 AM 48.2°F9.0°C 37.8°F3.2°C 67% 5.8 mph SE9.3 kmh SE 5.8 mph9.3 kmh 30.45 in1031.2 mb - 0.00 in0.0 mm 0.00 in0.0 mm
01:35 AM 48.2°F9.0°C 38.1°F3.4°C 68% 5.8 mph SE9.3 kmh SE 10.4 mph16.7 kmh 30.45 in1031.2 mb - 0.00 in0.0 mm 0.00 in0.0 mm
01:30 AM 48.2°F9.0°C 38.1°F3.4°C 68% 5.8 mph SSE9.3 kmh SSE 8.1 mph13.0 kmh 30.45 in1031.2 mb - 0.00 in0.0 mm 0.00 in0.0 mm
01:25 AM 48.2°F9.0°C 38.1°F3.4°C 68% 6.9 mph SSE11.1 kmh SSE 9.2 mph14.8 kmh 30.45 in1031.2 mb - 0.00 in0.0 mm 0.00 in0.0 mm
01:20 AM 48.2°F9.0°C 38.1°F3.4°C 68% 4.6 mph ESE7.4 kmh ESE 6.9 mph11.1 kmh 30.45 in1031.2 mb - 0.00 in0.0 mm 0.00 in0.0 mm
01:15 AM 48.2°F9.0°C 38.1°F3.4°C 68% 5.8 mph ESE9.3 kmh ESE 8.1 mph13.0 kmh 30.45 in1031.2 mb - 0.00 in0.0 mm 0.00 in0.0 mm
01:10 AM 48.2°F9.0°C 38.1°F3.4°C 68% 6.9 mph SE11.1 kmh SE 8.1 mph13.0 kmh 30.45 in1031.2 mb - 0.00 in0.0 mm 0.00 in0.0 mm
01:00 AM 48.2°F9.0°C 38.1°F3.4°C 68% 6.9 mph SE11.1 kmh SE 9.2 mph14.8 kmh 30.45 in1031.2 mb - 0.00 in0.0 mm 0.00 in0.0 mm
12:55 AM 48.2°F9.0°C 38.1°F3.4°C 68% 6.9 mph SE11.1 kmh SE 9.2 mph14.8 kmh 30.45 in1031.2 mb - 0.00 in0.0 mm 0.00 in0.0 mm
12:50 AM 48.2°F9.0°C 38.1°F3.4°C 68% 5.8 mph SE9.3 kmh SE 8.1 mph13.0 kmh 30.47 in1031.8 mb - 0.00 in0.0 mm 0.00 in0.0 mm
12:45 AM 48.2°F9.0°C 38.1°F3.4°C 68% 6.9 mph SE11.1 kmh SE 9.2 mph14.8 kmh 30.48 in1032.2 mb - 0.00 in0.0 mm 0.00 in0.0 mm
12:40 AM 48.2°F9.0°C 38.1°F3.4°C 68% 5.8 mph SE9.3 kmh SE 8.1 mph13.0 kmh 30.48 in1032.2 mb - 0.00 in0.0 mm 0.00 in0.0 mm
12:35 AM 48.2°F9.0°C 38.1°F3.4°C 68% 4.6 mph SE7.4 kmh SE 5.8 mph9.3 kmh 30.48 in1032.2 mb - 0.00 in0.0 mm 0.00 in0.0 mm
12:30 AM 48.2°F9.0°C 38.5°F3.6°C 69% 5.8 mph SE9.3 kmh SE 5.8 mph9.3 kmh 30.48 in1032.2 mb - 0.00 in0.0 mm 0.00 in0.0 mm
12:25 AM 48.2°F9.0°C 38.5°F3.6°C 69% 8.1 mph SE13.0 kmh SE 12.7 mph20.4 kmh 30.48 in1032.2 mb - 0.00 in0.0 mm 0.00 in0.0 mm
12:20 AM 48.2°F9.0°C 38.5°F3.6°C 69% 5.8 mph SE9.3 kmh SE 6.9 mph11.1 kmh 30.48 in1032.2 mb - 0.00 in0.0 mm 0.00 in0.0 mm
12:15 AM 48.0°F8.9°C 38.3°F3.5°C 69% 5.8 mph SE9.3 kmh SE 6.9 mph11.1 kmh 30.48 in1032.2 mb - 0.00 in0.0 mm 0.00 in0.0 mm
12:10 AM 47.8°F8.8°C 38.2°F3.4°C 69% 5.8 mph SE9.3 kmh SE 6.9 mph11.1 kmh 30.48 in1032.2 mb - 0.00 in0.0 mm 0.00 in0.0 mm
12:00 AM 47.8°F8.8°C 38.2°F3.4°C 69% 6.9 mph SSE11.1 kmh SSE 11.5 mph18.5 kmh 30.48 in1032.2 mb - 0.00 in0.0 mm 0.00 in0.0 mm